createdAt,value
2023-05-02T00:02:22.440Z,6.82
2023-05-02T00:05:08.261Z,9.25
2023-05-02T00:07:53.847Z,8.90
2023-05-02T00:10:39.541Z,8.45
2023-05-02T00:13:24.926Z,13.48
2023-05-02T00:16:11.351Z,16.33
2023-05-02T00:18:56.658Z,15.35
2023-05-02T00:21:42.199Z,11.50
2023-05-02T00:24:27.679Z,13.23
2023-05-02T00:27:14.378Z,12.75
2023-05-02T00:30:00.886Z,11.95
2023-05-02T00:32:46.826Z,10.65
2023-05-02T00:35:33.580Z,8.00
2023-05-02T00:38:19.040Z,6.90
2023-05-02T00:41:05.779Z,6.53
2023-05-02T00:43:51.147Z,6.85
2023-05-02T00:46:36.635Z,6.45
2023-05-02T00:49:22.543Z,5.20
2023-05-02T00:52:08.973Z,10.40
2023-05-02T00:54:54.726Z,7.93
2023-05-02T00:57:40.893Z,5.43
2023-05-02T01:00:37.108Z,3.65
2023-05-02T01:03:59.765Z,8.25
2023-05-02T01:07:07.031Z,8.35
2023-05-02T01:10:07.857Z,9.18
2023-05-02T01:12:53.494Z,10.38
2023-05-02T01:15:42.199Z,10.20
2023-05-02T01:18:32.784Z,5.93
2023-05-02T01:21:18.732Z,12.43
2023-05-02T01:24:16.499Z,7.47
2023-05-02T01:27:14.424Z,4.65
2023-05-02T01:30:02.590Z,14.50
2023-05-02T01:32:52.584Z,6.63
2023-05-02T01:35:38.924Z,5.35
2023-05-02T01:38:25.509Z,6.40
2023-05-02T01:41:13.192Z,12.13
2023-05-02T01:44:00.121Z,2.53
2023-05-02T01:46:46.621Z,9.68
2023-05-02T01:49:34.950Z,11.70
2023-05-02T01:52:22.551Z,7.18
2023-05-02T01:55:13.069Z,11.10
2023-05-02T01:57:58.830Z,9.63
2023-05-02T02:00:45.935Z,5.35
2023-05-02T02:03:32.138Z,8.95
2023-05-02T02:06:19.879Z,5.07
2023-05-02T02:09:06.244Z,9.57
2023-05-02T02:12:06.244Z,3.25
2023-05-02T02:15:00.102Z,11.35
2023-05-02T02:17:55.486Z,5.63
2023-05-02T02:20:46.495Z,3.75
2023-05-02T02:23:34.827Z,8.93
2023-05-02T02:26:22.427Z,7.20
2023-05-02T02:29:07.656Z,9.88
2023-05-02T02:31:53.124Z,7.80
2023-05-02T02:34:38.332Z,10.60
2023-05-02T02:37:31.226Z,6.40
2023-05-02T02:40:28.754Z,5.82
2023-05-02T02:43:53.860Z,9.88
2023-05-02T02:46:42.458Z,6.70
2023-05-02T02:49:44.551Z,10.23
2023-05-02T02:55:55.946Z,7.00
2023-05-02T02:58:57.314Z,7.72
2023-05-02T03:01:47.128Z,4.78
2023-05-02T03:04:35.239Z,9.75
2023-05-02T03:07:22.288Z,4.28
2023-05-02T03:10:09.279Z,9.02
2023-05-02T03:12:56.410Z,8.90
2023-05-02T03:15:52.507Z,6.53
2023-05-02T03:18:43.491Z,7.13
2023-05-02T03:21:31.757Z,11.45
2023-05-02T03:24:23.338Z,8.02
2023-05-02T03:27:11.480Z,4.45
2023-05-02T03:30:01.765Z,3.70
2023-05-02T03:32:48.666Z,6.25
2023-05-02T03:35:34.985Z,6.25
2023-05-02T03:38:21.914Z,6.60
2023-05-02T03:41:09.095Z,11.20
2023-05-02T03:43:54.394Z,8.45
2023-05-02T03:46:42.208Z,3.97
2023-05-02T03:49:30.638Z,7.38
2023-05-02T03:52:16.045Z,8.30
2023-05-02T03:55:02.701Z,6.78
2023-05-02T03:57:49.414Z,7.72
2023-05-02T04:00:35.136Z,9.63
2023-05-02T04:03:24.424Z,8.20
2023-05-02T04:06:10.979Z,6.53
2023-05-02T04:08:58.639Z,12.45
2023-05-02T04:11:49.355Z,3.17
2023-05-02T04:14:35.154Z,8.85
2023-05-02T04:17:21.876Z,4.15
2023-05-02T04:20:09.471Z,9.77
2023-05-02T04:22:56.975Z,6.70
2023-05-02T04:25:50.612Z,5.90
2023-05-02T04:28:36.655Z,3.47
2023-05-02T04:31:23.058Z,4.00
2023-05-02T04:34:09.531Z,8.75
2023-05-02T04:37:01.691Z,6.72
2023-05-02T04:39:47.522Z,10.13
2023-05-02T04:42:43.136Z,3.47
2023-05-02T04:45:39.064Z,5.88
2023-05-02T04:48:30.388Z,5.50
2023-05-02T04:51:16.906Z,7.75
2023-05-02T04:54:05.664Z,5.03
2023-05-02T04:56:51.016Z,4.35
2023-05-02T04:59:38.639Z,3.50
2023-05-02T05:02:26.655Z,5.40
2023-05-02T05:05:14.041Z,12.98
2023-05-02T05:07:59.318Z,6.38
2023-05-02T05:10:48.664Z,5.75
2023-05-02T05:13:35.104Z,9.52
2023-05-02T05:16:20.969Z,6.85
2023-05-02T05:19:07.094Z,9.35
2023-05-02T05:21:53.280Z,10.07
2023-05-02T05:24:39.983Z,7.32
2023-05-02T05:27:25.351Z,7.90
2023-05-02T05:30:11.130Z,7.95
2023-05-02T05:32:57.013Z,4.68
2023-05-02T05:35:42.386Z,9.68
2023-05-02T05:38:28.313Z,7.90
2023-05-02T05:41:13.949Z,6.22
2023-05-02T05:44:05.395Z,6.82
2023-05-02T05:46:50.933Z,7.13
2023-05-02T05:49:39.153Z,5.15
2023-05-02T05:52:27.708Z,9.65
2023-05-02T05:55:14.466Z,6.07
2023-05-02T05:58:00.424Z,8.52
2023-05-02T06:00:46.175Z,4.63
2023-05-02T06:03:32.395Z,6.13
2023-05-02T06:06:18.661Z,7.90
2023-05-02T06:09:04.425Z,3.85
2023-05-02T06:11:51.882Z,11.07
2023-05-02T06:14:37.716Z,6.43
2023-05-02T06:17:23.092Z,7.25
2023-05-02T06:20:09.398Z,9.50
2023-05-02T06:22:54.906Z,6.20
2023-05-02T06:25:40.478Z,8.25
2023-05-02T06:28:26.312Z,3.50
2023-05-02T06:31:12.063Z,4.57
2023-05-02T06:33:57.928Z,3.72
2023-05-02T06:36:43.465Z,8.50
2023-05-02T06:39:28.873Z,7.85
2023-05-02T06:42:14.191Z,7.32
2023-05-02T06:44:59.609Z,6.70
2023-05-02T06:47:45.160Z,3.33
2023-05-02T06:50:30.806Z,5.38
2023-05-02T06:53:16.428Z,5.90
2023-05-02T06:56:02.191Z,4.45
2023-05-02T06:58:47.594Z,8.98
2023-05-02T07:01:32.854Z,7.13
2023-05-02T07:04:18.669Z,6.10
2023-05-02T07:07:04.263Z,6.60
2023-05-02T07:09:49.858Z,7.55
2023-05-02T07:12:35.682Z,6.45
2023-05-02T07:15:20.967Z,9.70
2023-05-02T07:18:06.607Z,10.45
2023-05-02T07:20:52.265Z,6.47
2023-05-02T07:23:37.848Z,7.65
2023-05-02T07:26:24.378Z,11.52
2023-05-02T07:29:09.911Z,5.40
2023-05-02T07:31:55.826Z,7.53
2023-05-02T07:34:41.601Z,10.75
2023-05-02T07:37:27.490Z,10.57
2023-05-02T07:40:13.436Z,14.70
2023-05-02T07:43:01.715Z,11.68
2023-05-02T07:45:47.147Z,8.90
2023-05-02T07:48:32.478Z,7.10
2023-05-02T07:51:20.533Z,9.02
2023-05-02T07:54:19.637Z,8.88
2023-05-02T07:57:08.407Z,12.70
2023-05-02T07:59:53.934Z,7.80
2023-05-02T08:02:39.494Z,6.22
2023-05-02T08:05:25.141Z,7.78
2023-05-02T08:08:10.291Z,6.60
2023-05-02T08:10:55.655Z,8.90
2023-05-02T08:13:41.071Z,5.60
2023-05-02T08:16:26.585Z,13.00
2023-05-02T08:19:11.954Z,9.52
2023-05-02T08:21:57.255Z,10.40
2023-05-02T08:24:42.753Z,9.77
2023-05-02T08:27:28.313Z,6.88
2023-05-02T08:30:14.334Z,8.50
2023-05-02T08:32:59.894Z,7.85
2023-05-02T08:35:45.241Z,7.15
2023-05-02T08:38:30.824Z,5.60
2023-05-02T08:41:18.248Z,17.85
2023-05-02T08:44:04.304Z,8.63
2023-05-02T08:46:51.153Z,9.93
2023-05-02T08:49:38.594Z,6.72
2023-05-02T08:52:24.938Z,4.38
2023-05-02T08:55:12.599Z,7.72
2023-05-02T08:57:58.806Z,9.55
2023-05-02T09:00:48.664Z,9.05
2023-05-02T09:03:36.118Z,5.82
2023-05-02T09:06:22.913Z,8.85
2023-05-02T09:09:08.702Z,9.38
2023-05-02T09:11:54.314Z,6.53
2023-05-02T09:14:40.285Z,9.27
2023-05-02T09:17:25.977Z,6.28
2023-05-02T09:20:13.189Z,11.90
2023-05-02T09:22:58.671Z,6.47
2023-05-02T09:25:44.210Z,9.32
2023-05-02T09:28:49.393Z,16.25
2023-05-02T09:34:27.989Z,5.95
2023-05-02T09:37:36.181Z,6.43
2023-05-02T09:40:23.317Z,7.85
2023-05-02T09:43:16.795Z,8.10
2023-05-02T09:46:07.391Z,6.10
2023-05-02T09:48:55.974Z,12.95
2023-05-02T09:51:44.039Z,8.73
2023-05-02T09:54:36.975Z,9.82
2023-05-02T09:57:23.435Z,11.15
2023-05-02T10:00:09.681Z,9.65
2023-05-02T10:02:58.279Z,7.22
2023-05-02T10:05:46.207Z,9.95
2023-05-02T10:08:33.673Z,8.73
2023-05-02T10:11:19.285Z,7.95
2023-05-02T10:14:09.345Z,8.50
2023-05-02T10:17:02.307Z,10.50
2023-05-02T10:20:07.841Z,10.50
2023-05-02T10:22:54.628Z,8.40
2023-05-02T10:25:40.346Z,6.97
2023-05-02T10:28:27.340Z,8.75
2023-05-02T10:31:17.733Z,7.05
2023-05-02T10:34:04.014Z,8.15
2023-05-02T10:36:49.697Z,6.68
2023-05-02T10:39:35.271Z,6.68
2023-05-02T10:42:21.112Z,7.55
2023-05-02T10:45:30.493Z,4.43
2023-05-02T10:48:20.905Z,6.80
2023-05-02T10:51:06.592Z,8.27
2023-05-02T10:53:52.315Z,9.02
2023-05-02T10:57:03.472Z,6.95
2023-05-02T10:59:49.377Z,9.80
2023-05-02T11:02:36.037Z,6.22
2023-05-02T11:05:22.957Z,6.32
2023-05-02T11:08:20.197Z,9.57
2023-05-02T11:11:45.015Z,8.02
2023-05-02T11:14:39.851Z,9.35
2023-05-02T11:17:25.974Z,7.65
2023-05-02T11:20:14.556Z,14.38
2023-05-02T11:23:26.067Z,7.10
2023-05-02T11:26:22.457Z,11.20
2023-05-02T11:29:08.118Z,9.90
2023-05-02T11:31:55.088Z,11.15
2023-05-02T11:34:42.697Z,8.10
2023-05-02T11:37:28.812Z,7.40
2023-05-02T11:40:15.708Z,14.73
2023-05-02T11:43:12.021Z,13.73
2023-05-02T11:46:00.135Z,10.50
2023-05-02T11:48:45.937Z,16.02
2023-05-02T11:51:31.779Z,15.20
2023-05-02T11:54:21.940Z,11.90
2023-05-02T11:57:07.560Z,7.57
2023-05-02T11:59:54.626Z,9.23
2023-05-02T12:02:44.282Z,7.63
2023-05-02T12:05:30.473Z,9.95
2023-05-02T12:08:28.719Z,12.88
2023-05-02T12:11:18.277Z,8.95
2023-05-02T12:14:04.432Z,8.23
2023-05-02T12:16:49.798Z,8.73
2023-05-02T12:19:37.209Z,7.55
2023-05-02T12:22:25.576Z,12.50
2023-05-02T12:25:10.927Z,6.50
2023-05-02T12:28:03.186Z,4.72
2023-05-02T12:30:50.566Z,5.32
2023-05-02T12:33:43.488Z,3.15
2023-05-02T12:36:29.570Z,3.53
2023-05-02T12:39:15.304Z,5.82
2023-05-02T12:42:00.995Z,2.85
2023-05-02T12:44:48.193Z,2.72
2023-05-02T12:47:46.441Z,4.82
2023-05-02T12:50:36.962Z,1.85
2023-05-02T12:53:45.935Z,2.50
2023-05-02T12:56:39.463Z,2.30
2023-05-02T12:59:31.009Z,1.67
2023-05-02T13:02:16.750Z,2.17
2023-05-02T13:05:02.063Z,5.18
2023-05-02T13:07:47.438Z,2.20
2023-05-02T13:10:33.268Z,7.10
2023-05-02T13:13:18.627Z,1.95
2023-05-02T13:16:04.150Z,4.38
2023-05-02T13:18:49.417Z,2.85
2023-05-02T13:21:34.860Z,1.95
2023-05-02T13:24:20.157Z,0.98
2023-05-02T13:27:05.724Z,7.88
2023-05-02T13:29:51.943Z,4.20
2023-05-02T13:32:37.525Z,3.13
2023-05-02T13:35:23.301Z,4.75
2023-05-02T13:38:08.812Z,0.82
2023-05-02T13:40:54.734Z,0.93
2023-05-02T13:43:40.820Z,0.88
2023-05-02T13:46:26.899Z,2.08
2023-05-02T13:49:12.557Z,2.75
2023-05-02T13:51:57.922Z,2.22
2023-05-02T13:54:43.318Z,3.25
2023-05-02T13:57:28.808Z,2.22
2023-05-02T14:00:14.931Z,1.30
2023-05-02T14:03:00.748Z,1.00
2023-05-02T14:05:46.538Z,1.45
2023-05-02T14:08:31.784Z,0.75
2023-05-02T14:11:17.727Z,5.38
2023-05-02T14:14:03.081Z,2.92
2023-05-02T14:16:50.198Z,1.48
2023-05-02T14:19:36.443Z,2.08
2023-05-02T14:22:22.113Z,1.70
2023-05-02T14:25:08.205Z,0.98
2023-05-02T14:27:53.828Z,1.38
2023-05-02T14:30:39.218Z,1.83
2023-05-02T14:33:24.505Z,0.60
2023-05-02T14:36:09.723Z,1.88
2023-05-02T14:38:55.111Z,1.13
2023-05-02T14:41:40.417Z,2.17
2023-05-02T14:44:25.919Z,0.93
2023-05-02T14:47:11.291Z,1.48
2023-05-02T14:49:56.722Z,1.08
2023-05-02T14:52:43.175Z,2.28
2023-05-02T14:55:28.726Z,2.20
2023-05-02T14:58:20.524Z,0.40
2023-05-02T15:01:06.489Z,0.60
2023-05-02T15:04:05.875Z,2.40
2023-05-02T15:06:54.605Z,0.75
2023-05-02T15:09:40.978Z,1.65
2023-05-02T15:12:26.885Z,0.82
2023-05-02T15:15:12.433Z,3.10
2023-05-02T15:17:57.995Z,0.70
2023-05-02T15:20:44.671Z,0.30
2023-05-02T15:23:30.332Z,6.90
2023-05-02T15:26:15.861Z,2.15
2023-05-02T15:29:01.109Z,3.00
2023-05-02T15:31:46.840Z,1.00
2023-05-02T15:34:32.179Z,1.98
2023-05-02T15:37:17.725Z,3.60
2023-05-02T15:40:04.450Z,1.88
2023-05-02T15:42:50.577Z,1.17
2023-05-02T15:45:36.340Z,0.98
2023-05-02T15:48:23.273Z,0.70
2023-05-02T15:51:10.795Z,0.50
2023-05-02T15:53:56.249Z,0.95
2023-05-02T15:56:41.687Z,1.08
2023-05-02T15:59:27.272Z,0.80
2023-05-02T16:02:12.862Z,3.95
2023-05-02T16:04:58.563Z,0.73
2023-05-02T16:07:44.115Z,0.98
2023-05-02T16:10:29.983Z,0.82
2023-05-02T16:13:15.370Z,1.73
2023-05-02T16:16:01.159Z,1.08
2023-05-02T16:18:46.529Z,1.73
2023-05-02T16:21:31.820Z,3.22
2023-05-02T16:24:17.093Z,3.30
2023-05-02T16:27:02.490Z,1.48
2023-05-02T16:29:48.576Z,2.03
2023-05-02T16:32:34.295Z,1.25
2023-05-02T16:35:20.085Z,1.38
2023-05-02T16:38:06.100Z,2.30
2023-05-02T16:40:51.919Z,1.40
2023-05-02T16:43:37.934Z,0.50
2023-05-02T16:46:23.486Z,2.17
2023-05-02T16:49:08.739Z,3.08
2023-05-02T16:51:55.001Z,2.58
2023-05-02T16:54:40.345Z,1.27
2023-05-02T16:57:25.918Z,0.60
2023-05-02T17:00:12.516Z,1.08
2023-05-02T17:02:58.149Z,1.23
2023-05-02T17:05:43.780Z,3.50
2023-05-02T17:08:29.336Z,2.03
2023-05-02T17:11:15.034Z,3.78
2023-05-02T17:14:00.675Z,3.40
2023-05-02T17:16:46.233Z,5.90
2023-05-02T17:19:31.796Z,4.15
2023-05-02T17:22:19.005Z,3.33
2023-05-02T17:25:06.362Z,2.58
2023-05-02T17:27:51.997Z,1.27
2023-05-02T17:30:37.822Z,2.30
2023-05-02T17:33:23.790Z,2.08
2023-05-02T17:36:09.401Z,1.70
2023-05-02T17:38:55.008Z,1.77
2023-05-02T17:41:40.537Z,1.42
2023-05-02T17:44:26.148Z,1.92
2023-05-02T17:47:12.169Z,3.67
2023-05-02T17:49:57.783Z,5.65
2023-05-02T17:52:43.073Z,4.90
2023-05-02T17:55:28.582Z,7.88
2023-05-02T17:58:14.763Z,2.95
2023-05-02T18:01:07.935Z,3.85
2023-05-02T18:03:54.457Z,7.53
2023-05-02T18:06:40.171Z,5.43
2023-05-02T18:09:25.831Z,4.90
2023-05-02T18:12:11.357Z,9.75
2023-05-02T18:14:56.981Z,5.35
2023-05-02T18:17:42.673Z,6.15
2023-05-02T18:20:28.549Z,6.53
2023-05-02T18:23:13.913Z,7.65
2023-05-02T18:25:59.307Z,7.15
2023-05-02T18:28:46.766Z,8.95
2023-05-02T18:31:32.502Z,5.07
2023-05-02T18:34:19.263Z,5.35
2023-05-02T18:37:04.913Z,4.93
2023-05-02T18:39:50.547Z,5.88
2023-05-02T18:42:36.404Z,6.10
2023-05-02T18:45:21.927Z,7.78
2023-05-02T18:48:07.547Z,7.60
2023-05-02T18:50:56.859Z,6.53
2023-05-02T18:53:42.098Z,7.82
2023-05-02T18:56:28.306Z,7.65
2023-05-02T18:59:13.772Z,8.50
2023-05-02T19:01:59.869Z,8.45
2023-05-02T19:04:45.790Z,8.20
2023-05-02T19:07:31.196Z,9.23
2023-05-02T19:10:16.556Z,6.43
2023-05-02T19:13:02.412Z,8.90
2023-05-02T19:15:47.755Z,5.32
2023-05-02T19:18:33.067Z,5.43
2023-05-02T19:21:18.272Z,8.10
2023-05-02T19:24:04.067Z,6.07
2023-05-02T19:26:49.604Z,6.10
2023-05-02T19:29:35.060Z,7.82
2023-05-02T19:32:24.023Z,6.88
2023-05-02T19:35:10.004Z,7.03
2023-05-02T19:37:55.747Z,7.45
2023-05-02T19:40:41.450Z,13.95
2023-05-02T19:43:26.940Z,7.30
2023-05-02T19:46:14.144Z,10.07
2023-05-02T19:48:59.869Z,8.57
2023-05-02T19:51:45.254Z,12.07
2023-05-02T19:54:31.106Z,9.88
2023-05-02T19:57:17.952Z,18.00
2023-05-02T20:00:04.948Z,18.30
2023-05-02T20:02:58.077Z,13.13
2023-05-02T20:05:43.754Z,10.15
2023-05-02T20:08:31.455Z,12.10
2023-05-02T20:11:17.129Z,16.25
2023-05-02T20:14:03.158Z,13.02
2023-05-02T20:16:48.479Z,8.50
2023-05-02T20:19:33.934Z,13.05
2023-05-02T20:22:19.509Z,13.32
2023-05-02T20:25:05.554Z,10.10
2023-05-02T20:27:51.853Z,8.85
2023-05-02T20:30:39.217Z,8.43
2023-05-02T20:33:27.586Z,11.07
2023-05-02T20:36:19.209Z,10.02
2023-05-02T20:39:07.474Z,9.65
2023-05-02T20:41:53.218Z,9.45
2023-05-02T20:44:39.226Z,11.82
2023-05-02T20:47:27.181Z,15.10
2023-05-02T20:50:12.925Z,8.88
2023-05-02T20:52:58.786Z,10.80
2023-05-02T20:55:44.453Z,8.63
2023-05-02T20:58:29.917Z,12.27
2023-05-02T21:01:15.520Z,10.18
2023-05-02T21:04:01.150Z,7.78
2023-05-02T21:06:47.733Z,12.68
2023-05-02T21:09:33.785Z,11.57
2023-05-02T21:12:19.624Z,10.75
2023-05-02T21:15:05.856Z,6.97
2023-05-02T21:18:00.266Z,9.95
2023-05-02T21:20:48.418Z,12.25
2023-05-02T21:23:34.016Z,9.57
2023-05-02T21:26:19.451Z,13.20
2023-05-02T21:29:05.706Z,12.55
2023-05-02T21:31:54.006Z,13.90
2023-05-02T21:34:40.167Z,11.40
2023-05-02T21:37:25.611Z,11.38
2023-05-02T21:40:11.863Z,10.68
2023-05-02T21:42:57.237Z,12.13
2023-05-02T21:45:47.189Z,11.05
2023-05-02T21:48:34.059Z,13.35
2023-05-02T21:51:19.687Z,11.15
2023-05-02T21:54:05.318Z,9.00
2023-05-02T21:56:50.793Z,6.47
2023-05-02T21:59:36.102Z,8.70
2023-05-02T22:02:21.744Z,7.45
2023-05-02T22:05:08.503Z,6.53
2023-05-02T22:07:54.071Z,5.65
2023-05-02T22:10:44.502Z,10.18
2023-05-02T22:13:30.132Z,9.15
2023-05-02T22:16:15.618Z,12.10
2023-05-02T22:19:01.641Z,9.73
2023-05-02T22:21:47.364Z,10.85
2023-05-02T22:24:33.433Z,12.10
2023-05-02T22:27:18.978Z,9.10
2023-05-02T22:30:05.310Z,8.93
2023-05-02T22:32:51.340Z,9.60
2023-05-02T22:35:37.784Z,13.23
2023-05-02T22:38:23.234Z,10.88
2023-05-02T22:41:08.923Z,10.85
2023-05-02T22:43:54.512Z,9.27
2023-05-02T22:46:39.992Z,12.02
2023-05-02T22:49:25.225Z,12.82
2023-05-02T22:52:11.271Z,11.82
2023-05-02T22:54:57.633Z,13.25
2023-05-02T22:57:43.523Z,18.00
2023-05-02T23:00:28.931Z,16.95
2023-05-02T23:03:14.481Z,14.05
2023-05-02T23:06:00.185Z,13.43
2023-05-02T23:08:45.977Z,18.30
2023-05-02T23:11:31.255Z,16.05
2023-05-02T23:14:16.627Z,13.60
2023-05-02T23:17:03.506Z,16.17
2023-05-02T23:19:50.016Z,12.13
2023-05-02T23:22:37.128Z,15.82
2023-05-02T23:25:24.047Z,21.83
2023-05-02T23:28:09.676Z,21.02
2023-05-02T23:30:55.104Z,16.23
2023-05-02T23:33:40.501Z,15.88
2023-05-02T23:36:27.217Z,10.93
2023-05-02T23:39:13.560Z,18.60
2023-05-02T23:41:59.060Z,15.32
2023-05-02T23:44:44.698Z,18.48
2023-05-02T23:47:30.342Z,16.85
2023-05-02T23:50:15.852Z,19.48
2023-05-02T23:53:01.694Z,13.45
2023-05-02T23:55:47.207Z,16.38
2023-05-02T23:58:32.632Z,12.63
